Anaheim, CA (92801)

1:07 AM PST on December 09, 2016 (GMT -0800)
Orangethorpe/Brookhurst | | Change Station

Elev 125 ft 33.86 °N, 117.95 °W | Updated 10 seconds ago

Overcast
Overcast
52.2 °F
Feels Like 52.2 °F
N
0.0
Wind Variable Wind from SSW

Today
High -- | Low -- °F
--% Chance of Precip.
Yesterday
High -- | Low -- °F
Precip. -- in
Pressure 30.25 in
Visibility 10.0 miles
Clouds Overcast 1300 ft
Dew Point 47 °F
Humidity 85%
Rainfall 0.00 in
Snow Depth Not available.
6:45 AM 4:43 PM
Waxing Gibbous, 72% visible
METAR KFUL 090853Z AUTO 00000KT 10SM OVC013 13/09 A3025 RMK AO2 SLP241 T01280094 58001
Pressure 30.25 in
Visibility 10.0 miles
Clouds Overcast 1300 ft
Dew Point 47 °F
Humidity 85%
Rainfall 0.00 in
Snow Depth Not available.
6:45 AM 4:43 PM
Waxing Gibbous, 72% visible
METAR KFUL 090853Z AUTO 00000KT 10SM OVC013 13/09 A3025 RMK AO2 SLP241 T01280094 58001

10-Day Weather Forecast

Almanac

Astronomy

Dec. 09, 2016 Rise Set
Actual Time
Civil Twilight
Nautical Twilight
Astronomical Twilight
Moon
Length of Visible Light
Length of Day
Tomorrow will be .
, % of the Moon is Illuminated

Today's Extremes

State Highs State Lows

Community

WunderPhotos

Upload Photos

1,956,371 photos uploaded!

WunderBlog® & News

Nearby

Air Quality

  Air Quality AQ Index Pollutant
Not available.

Snow Depth

Station Depth Elevation

Earthquake Activity

City Distance Mag. Time & Date
Minimum magnitude displayed is 2.5.

Coastal Water Temperatures

Place Temperature

Stations

Nearby Weather Stations

Station Location Temp. Windchill Dew Point Humidity Wind Precip. Elev Updated Type
                   

Watches & Warnings

There are currently no watches in effect.